Snow/Ice From: 16-12-2017 16:00 Until: 17-12-2017 16:00 warning for: Snow/Ice Level: Yellow info button

Although rather usual in this region, locally or potentially dangerous phenomena are expected. (such as local winds, summer thunderstorms, rising streams or high waves) Be aware and pay attention to the latest weather updates, especially if you carry out activities exposed to weather or close to a stream or shoreline. 


Meteo18 Weather Cam more information Meteo18 Weather Cam


Thunder radar more information blitzortung!


warning for Snow/Ice more information rain snow radar


Visit our other weather sites:

Template documentation
and downloads

And another site



Weather Underground History page Text

Daily Summary for November 7, 2017 Units:  English    Metric   Both
« Previous Day
Next Day »
Daily Weekly Monthly Yearly Custom
  High: Low: Average:
Temperature: 47.8 °F 31.3 °F 39.7 °F
Dew Point: 37.9 °F 29.3 °F 34 °F
Humidity: 93 % 63 % 81 %
Wind Speed: 10 mph 0 mph 1.9 mph
Wind Gust: 14 mph - -
Wind:- - WSW
Pressure: 30.3 in 30.1 in -
Precipitation: 0 in    
Historical Graphs
 
 
Tabular Data for November 7, 2017
Time Temperature Dew Point Pressure Wind Wind Speed Wind Gust Humidity Rainfall Rate (Hourly)
00:02 37.9 °F 33.8 °F 30.3 in North 3 mph 7 mph 85 % 0 in
00:07 37.9 °F 33.8 °F 30.3 in North 4 mph 7 mph 85 % 0 in
00:12 37.9 °F 33.8 °F 30.3 in North 1 mph 6 mph 85 % 0 in
00:17 37.8 °F 33.6 °F 30.3 in NW 4 mph 6 mph 85 % 0 in
00:22 37.8 °F 33.6 °F 30.3 in NNW 3 mph 6 mph 85 % 0 in
00:32 37.2 °F 33.4 °F 30.3 in NNW 1 mph 7 mph 86 % 0 in
00:42 37.2 °F 33.4 °F 30.3 in NNW 2 mph 6 mph 86 % 0 in
00:47 37.2 °F 33.4 °F 30.3 in NW 2 mph 5 mph 86 % 0 in
00:52 37.2 °F 33.4 °F 30.2 in NW 1 mph 5 mph 86 % 0 in
00:57 37.2 °F 33.4 °F 30.2 in NW 1 mph 4 mph 86 % 0 in
01:02 37.2 °F 33.1 °F 30.3 in NW 2 mph 4 mph 85 % 0 in
01:07 36.9 °F 32.7 °F 30.3 in WNW 1 mph 3 mph 85 % 0 in
01:12 36.1 °F 32.4 °F 30.3 in WNW 2 mph 3 mph 86 % 0 in
01:17 35.8 °F 32.4 °F 30.3 in WNW 2 mph 3 mph 87 % 0 in
01:22 35.6 °F 32.4 °F 30.3 in West 1 mph 3 mph 88 % 0 in
01:27 35.6 °F 32.4 °F 30.3 in Calm   3 mph 88 % 0 in
01:32 35.8 °F 32.5 °F 30.3 in WNW 3 mph 3 mph 88 % 0 in
01:37 35.8 °F 32.5 °F 30.3 in WNW 1 mph 3 mph 88 % 0 in
01:42 35.8 °F 32.5 °F 30.3 in West 1 mph 3 mph 88 % 0 in
01:47 35.4 °F 32 °F 30.3 in WNW 1 mph 3 mph 87 % 0 in
01:52 35.2 °F 32 °F 30.3 in WNW 1 mph 2 mph 88 % 0 in
01:57 35.1 °F 31.8 °F 30.3 in WNW 1 mph 2 mph 88 % 0 in
02:02 35.2 °F 32 °F 30.3 in WNW 1 mph 3 mph 88 % 0 in
02:12 35.6 °F 32.4 °F 30.3 in WNW 1 mph 3 mph 88 % 0 in
02:17 35.8 °F 32.5 °F 30.3 in WNW 2 mph 2 mph 88 % 0 in
02:22 35.8 °F 32.5 °F 30.3 in WNW 1 mph 2 mph 88 % 0 in
02:32 36.1 °F 32.9 °F 30.3 in NNW 3 mph 3 mph 88 % 0 in
02:37 36.7 °F 33.4 °F 30.3 in WNW 1 mph 7 mph 88 % 0 in
02:42 36.7 °F 33.3 °F 30.3 in NW 3 mph 7 mph 87 % 0 in
02:47 36.5 °F 33.1 °F 30.2 in Calm   7 mph 87 % 0 in
02:52 36.3 °F 32.9 °F 30.2 in Calm   4 mph 87 % 0 in
02:57 36.1 °F 32.7 °F 30.2 in Calm   4 mph 87 % 0 in
03:02 36.3 °F 33.1 °F 30.2 in Calm   2 mph 88 % 0 in
03:07 36.1 °F 32.9 °F 30.2 in NNW 1 mph 3 mph 88 % 0 in
03:12 36.1 °F 32.9 °F 30.2 in North 3 mph 3 mph 88 % 0 in
03:17 36.1 °F 32.9 °F 30.2 in NNW 2 mph 5 mph 88 % 0 in
03:22 36.3 °F 33.1 °F 30.2 in NNW 2 mph 5 mph 88 % 0 in
03:27 36.5 °F 33.3 °F 30.2 in NW 1 mph 7 mph 88 % 0 in
03:32 36.5 °F 33.3 °F 30.2 in NNW 1 mph 7 mph 88 % 0 in
03:37 36.3 °F 32.9 °F 30.2 in NNW 2 mph 7 mph 87 % 0 in
03:42 36.1 °F 32.9 °F 30.2 in WNW 4 mph 5 mph 88 % 0 in
03:47 36 °F 32.7 °F 30.2 in NNW 2 mph 4 mph 88 % 0 in
03:52 35.2 °F 32 °F 30.2 in NNW 3 mph 4 mph 88 % 0 in
03:57 35.2 °F 32 °F 30.2 in NNW 3 mph 4 mph 88 % 0 in
04:02 35.2 °F 32 °F 30.2 in NNW 3 mph 4 mph 88 % 0 in
08:07 34.2 °F 32.4 °F 30.2 in NNW 1 mph -998.7 mph 93 % 0 in
08:12 34.3 °F 32.5 °F 30.2 in NNW 1 mph 2 mph 93 % 0 in
08:17 34.5 °F 32.4 °F 30.2 in Calm   2 mph 92 % 0 in
08:22 34.5 °F 32.4 °F 30.2 in NW 1 mph 3 mph 92 % 0 in
08:32 34.3 °F 32.2 °F 30.2 in NW 2 mph 3 mph 92 % 0 in
08:37 34.7 °F 32.5 °F 30.2 in NW 2 mph 4 mph 92 % 0 in
08:42 34.9 °F 32.7 °F 30.2 in WNW 1 mph 4 mph 92 % 0 in
08:47 35.2 °F 33.1 °F 30.2 in Calm   4 mph 92 % 0 in
08:52 35.6 °F 33.4 °F 30.2 in Calm   3 mph 92 % 0 in
08:57 36 °F 33.8 °F 30.2 in Calm   3 mph 92 % 0 in
09:02 36.3 °F 34 °F 30.2 in Calm   1 mph 91 % 0 in
09:12 37 °F 34.7 °F 30.2 in Calm     91 % 0 in
09:17 37.8 °F 35.4 °F 30.2 in NNW 1 mph   91 % 0 in
09:22 38.1 °F 35.4 °F 30.2 in WNW 2 mph 2 mph 90 % 0 in
09:27 38.7 °F 36 °F 30.2 in Calm   3 mph 90 % 0 in
09:37 39.6 °F 36 °F 30.2 in Calm   3 mph 87 % 0 in
09:42 39.9 °F 36.3 °F 30.2 in Calm   2 mph 87 % 0 in
09:47 40.6 °F 37 °F 30.2 in Calm   2 mph 87 % 0 in
09:52 41.2 °F 37 °F 30.2 in North 1 mph 1 mph 85 % 0 in
09:57 41.2 °F 36.7 °F 30.2 in North 1 mph 5 mph 84 % 0 in
10:02 41.2 °F 36.7 °F 30.2 in ENE 2 mph 5 mph 84 % 0 in
10:12 41.7 °F 37.2 °F 30.2 in North 1 mph 6 mph 84 % 0 in
10:17 42.3 °F 37.8 °F 30.2 in NW 2 mph 6 mph 84 % 0 in
10:22 42.3 °F 36.9 °F 30.2 in NNW 5 mph 8 mph 81 % 0 in
10:27 42.6 °F 37.2 °F 30.2 in North 3 mph 8 mph 81 % 0 in
10:32 42.6 °F 36.9 °F 30.2 in NNW 3 mph 8 mph 80 % 0 in
10:37 43 °F 37.2 °F 30.2 in NNW 3 mph 8 mph 80 % 0 in
10:42 43.2 °F 37 °F 30.2 in NNW 6 mph 9 mph 79 % 0 in
10:47 43.5 °F 37 °F 30.2 in NE 1 mph 9 mph 78 % 0 in
10:57 44.1 °F 37 °F 30.2 in NNE 1 mph 9 mph 76 % 0 in
11:02 44.2 °F 37.2 °F 30.2 in NNW 2 mph 9 mph 76 % 0 in
11:07 44.4 °F 37.4 °F 30.2 in NNW 4 mph 9 mph 76 % 0 in
11:12 44.8 °F 37.9 °F 30.2 in NW 3 mph 8 mph 77 % 0 in
11:17 45.1 °F 37.8 °F 30.2 in NNE 5 mph 9 mph 75 % 0 in
11:27 45.1 °F 37.4 °F 30.2 in NNW 5 mph 12 mph 74 % 0 in
11:32 45.1 °F 37.4 °F 30.2 in North 5 mph 12 mph 74 % 0 in
11:37 45.3 °F 37.6 °F 30.2 in North 4 mph 12 mph 74 % 0 in
11:42 45.1 °F 36.7 °F 30.2 in NNW 6 mph 12 mph 72 % 0 in
11:47 45.1 °F 37 °F 30.2 in North 8 mph 12 mph 73 % 0 in
11:52 45.1 °F 36.7 °F 30.2 in NNW 7 mph 12 mph 72 % 0 in
11:57 45.5 °F 37.8 °F 30.2 in NNE 3 mph 12 mph 74 % 0 in
12:02 45.7 °F 37.2 °F 30.2 in NNW 7 mph 12 mph 72 % 0 in
12:07 45.7 °F 37.9 °F 30.2 in NNE 5 mph 12 mph 74 % 0 in
12:12 45.9 °F 37.8 °F 30.2 in NW 2 mph 11 mph 73 % 0 in
12:17 46 °F 37.6 °F 30.2 in NW 2 mph 11 mph 72 % 0 in
12:22 46 °F 36.9 °F 30.2 in NNE 2 mph 11 mph 70 % 0 in
12:27 46.2 °F 37 °F 30.2 in NW 4 mph 11 mph 70 % 0 in
12:42 46.2 °F 36.3 °F 30.2 in NNE 8 mph 13 mph 68 % 0 in
12:47 46 °F 36.1 °F 30.2 in North 7 mph 13 mph 68 % 0 in
12:52 46.2 °F 36 °F 30.2 in North 7 mph 12 mph 67 % 0 in
12:57 46.4 °F 36.5 °F 30.1 in North 5 mph 14 mph 68 % 0 in
13:02 46.4 °F 35.6 °F 30.1 in NNE 6 mph 14 mph 66 % 0 in
13:07 46.4 °F 35.2 °F 30.1 in NNE 8 mph 14 mph 65 % 0 in
13:12 46.6 °F 36.1 °F 30.1 in NNW 7 mph 14 mph 67 % 0 in
13:17 46.8 °F 36 °F 30.1 in NW 7 mph 14 mph 66 % 0 in
13:22 46.6 °F 35.4 °F 30.1 in NNW 7 mph 14 mph 65 % 0 in
13:27 46.8 °F 36.3 °F 30.1 in NE 10 mph 13 mph 67 % 0 in
13:32 46.9 °F 35.8 °F 30.1 in North 7 mph 12 mph 65 % 0 in
13:37 46.9 °F 35.8 °F 30.1 in NNW 3 mph 12 mph 65 % 0 in
13:42 47.1 °F 35.6 °F 30.1 in NNW 1 mph 12 mph 64 % 0 in
13:47 46.9 °F 35.8 °F 30.1 in NNW 4 mph 11 mph 65 % 0 in
13:52 46.9 °F 35.8 °F 30.1 in North 6 mph 11 mph 65 % 0 in
13:57 46.9 °F 35.1 °F 30.1 in North 4 mph 11 mph 63 % 0 in
14:02 47.1 °F 36.3 °F 30.1 in NNW 5 mph 10 mph 66 % 0 in
14:07 46.9 °F 35.8 °F 30.1 in NW 3 mph 10 mph 65 % 0 in
14:12 47.1 °F 36.3 °F 30.1 in NNE 1 mph 12 mph 66 % 0 in
14:22 47.3 °F 36.1 °F 30.1 in NNW 4 mph 12 mph 65 % 0 in
14:27 47.5 °F 36 °F 30.1 in North 7 mph 9 mph 64 % 0 in
14:32 47.3 °F 35.8 °F 30.1 in North 7 mph 10 mph 64 % 0 in
14:37 47.1 °F 36 °F 30.1 in North 8 mph 10 mph 65 % 0 in
14:42 47.3 °F 36.5 °F 30.1 in WNW 2 mph 11 mph 66 % 0 in
14:47 47.5 °F 36.7 °F 30.1 in North 4 mph 11 mph 66 % 0 in
14:52 47.7 °F 36.9 °F 30.1 in NNW 6 mph 11 mph 66 % 0 in
14:57 47.5 °F 36.3 °F 30.1 in NW 2 mph 8 mph 65 % 0 in
15:02 47.7 °F 36.5 °F 30.1 in NE 5 mph 8 mph 65 % 0 in
15:07 47.5 °F 36.3 °F 30.1 in NW 2 mph 8 mph 65 % 0 in
15:12 47.5 °F 36.7 °F 30.1 in North 2 mph 9 mph 66 % 0 in
15:17 47.8 °F 36.7 °F 30.1 in Calm   9 mph 65 % 0 in
15:22 47.8 °F 36.3 °F 30.1 in NW 3 mph 5 mph 64 % 0 in
15:27 47.3 °F 36.1 °F 30.1 in NNW 4 mph 5 mph 65 % 0 in
15:32 47.1 °F 36 °F 30.1 in NNW 2 mph 7 mph 65 % 0 in
15:37 47.1 °F 36.7 °F 30.1 in NW 3 mph 7 mph 67 % 0 in
15:42 47.1 °F 36.3 °F 30.1 in Calm   7 mph 66 % 0 in
15:47 47.1 °F 36.3 °F 30.1 in NNW 2 mph 5 mph 66 % 0 in
15:52 47.1 °F 36.3 °F 30.1 in NNE 3 mph 5 mph 66 % 0 in
15:57 47.1 °F 36.3 °F 30.1 in NNW 2 mph 5 mph 66 % 0 in
16:02 47.3 °F 36.5 °F 30.1 in NNE 4 mph 5 mph 66 % 0 in
16:07 47.5 °F 36.7 °F 30.1 in NE 1 mph 5 mph 66 % 0 in
16:12 47.7 °F 36.9 °F 30.1 in North 3 mph 5 mph 66 % 0 in
16:22 47.1 °F 35.6 °F 30.1 in NNE 3 mph 7 mph 64 % 0 in
16:27 46.9 °F 35.8 °F 30.1 in NNW 1 mph 7 mph 65 % 0 in
16:32 46.8 °F 36 °F 30.1 in Calm   7 mph 66 % 0 in
16:42 46.9 °F 35.8 °F 30.1 in Calm   2 mph 65 % 0 in
16:52 46.2 °F 36 °F 30.1 in Calm   3 mph 67 % 0 in
16:57 46.2 °F 36 °F 30.1 in WNW 1 mph 2 mph 67 % 0 in
17:02 45.9 °F 35.6 °F 30.1 in Calm   2 mph 67 % 0 in
17:07 45.1 °F 35.6 °F 30.1 in WNW 1 mph 2 mph 69 % 0 in
17:12 44.6 °F 35.4 °F 30.1 in Calm   2 mph 70 % 0 in
17:17 44.2 °F 35.1 °F 30.1 in Calm   2 mph 70 % 0 in
17:22 43.9 °F 35.1 °F 30.1 in Calm   2 mph 71 % 0 in
17:27 43.3 °F 34.9 °F 30.1 in Calm   1 mph 72 % 0 in
17:32 42.8 °F 34.7 °F 30.1 in Calm   1 mph 73 % 0 in
17:37 42.4 °F 34.7 °F 30.1 in Calm   1 mph 74 % 0 in
17:42 42.4 °F 34.7 °F 30.1 in Calm     74 % 0 in
17:47 41.7 °F 34.3 °F 30.1 in Calm     75 % 0 in
17:52 41.2 °F 34.2 °F 30.1 in Calm     76 % 0 in
17:57 40.8 °F 34.2 °F 30.1 in Calm     77 % 0 in
18:02 40.5 °F 33.8 °F 30.1 in Calm     77 % 0 in
18:07 40.5 °F 34.2 °F 30.1 in Calm     78 % 0 in
18:12 40.3 °F 34.3 °F 30.1 in WNW 2 mph   79 % 0 in
18:27 38.8 °F 33.8 °F 30.1 in Calm   2 mph 82 % 0 in
18:32 38.8 °F 33.8 °F 30.1 in Calm   1 mph 82 % 0 in
18:42 39.2 °F 33.8 °F 30.1 in Calm   1 mph 81 % 0 in
18:52 38.5 °F 33.4 °F 30.1 in NW 1 mph 2 mph 82 % 0 in
18:57 37.9 °F 33.6 °F 30.1 in WNW 1 mph 2 mph 84 % 0 in
19:02 37.9 °F 33.8 °F 30.1 in WNW 1 mph 2 mph 85 % 0 in
19:12 37.2 °F 33.1 °F 30.1 in WNW 1 mph 2 mph 85 % 0 in
19:17 36.7 °F 32.9 °F 30.1 in WNW 1 mph 2 mph 86 % 0 in
19:22 36.3 °F 32.5 °F 30.1 in WNW 1 mph 2 mph 86 % 0 in
19:27 36.1 °F 32.9 °F 30.1 in WNW 1 mph 2 mph 88 % 0 in
19:37 36.5 °F 33.1 °F 30.1 in WNW 1 mph 2 mph 87 % 0 in
19:42 36.3 °F 32.9 °F 30.1 in WNW 1 mph 1 mph 87 % 0 in
19:47 36 °F 32.5 °F 30.1 in WNW 1 mph 2 mph 87 % 0 in
19:52 35.8 °F 32.5 °F 30.1 in Calm   2 mph 88 % 0 in
19:57 35.8 °F 32.5 °F 30.1 in Calm   2 mph 88 % 0 in
20:02 36 °F 32.7 °F 30.1 in Calm   1 mph 88 % 0 in
20:07 35.8 °F 32.5 °F 30.1 in Calm   1 mph 88 % 0 in
20:12 35.2 °F 32 °F 30.1 in Calm   1 mph 88 % 0 in
20:17 34.9 °F 31.6 °F 30.1 in Calm   1 mph 88 % 0 in
20:22 34.3 °F 31.5 °F 30.1 in Calm     89 % 0 in
20:27 34.2 °F 31.3 °F 30.1 in Calm     89 % 0 in
20:32 34.2 °F 31.5 °F 30.1 in Calm     90 % 0 in
20:37 34 °F 31.3 °F 30.1 in Calm     90 % 0 in
20:42 33.8 °F 31.1 °F 30.1 in Calm     90 % 0 in
20:52 33.4 °F 30.7 °F 30.1 in West 1 mph 1 mph 90 % 0 in
20:57 33.3 °F 30.9 °F 30.1 in WNW 1 mph 1 mph 91 % 0 in
21:02 33.3 °F 30.9 °F 30.1 in Calm   2 mph 91 % 0 in
21:07 33.3 °F 30.9 °F 30.1 in WNW 1 mph 2 mph 91 % 0 in
21:12 33.1 °F 30.7 °F 30.1 in Calm   2 mph 91 % 0 in
21:17 32.9 °F 30.6 °F 30.1 in Calm   1 mph 91 % 0 in
21:22 33.1 °F 31.1 °F 30.1 in Calm   1 mph 92 % 0 in
21:32 33.4 °F 31.6 °F 30.1 in West 1 mph   93 % 0 in
21:37 33.8 °F 31.6 °F 30.1 in West 1 mph 3 mph 92 % 0 in
21:42 33.8 °F 31.5 °F 30.1 in Calm   3 mph 91 % 0 in
21:47 33.6 °F 31.3 °F 30.1 in Calm   3 mph 91 % 0 in
21:52 33.6 °F 31.3 °F 30.1 in Calm   2 mph 91 % 0 in
21:57 33.6 °F 31.3 °F 30.1 in Calm   1 mph 91 % 0 in
22:02 33.6 °F 30.9 °F 30.1 in Calm   1 mph 90 % 0 in
22:07 33.3 °F 30.6 °F 30.1 in WNW 1 mph 1 mph 90 % 0 in
22:12 33.1 °F 30.7 °F 30.1 in Calm   2 mph 91 % 0 in
22:22 33.1 °F 31.1 °F 30.1 in Calm   2 mph 92 % 0 in
22:27 33.3 °F 31.1 °F 30.1 in North 2 mph 2 mph 92 % 0 in
22:32 33.1 °F 30.7 °F 30.1 in NNE 1 mph 2 mph 91 % 0 in
22:37 32.7 °F 30.7 °F 30.1 in Calm   2 mph 92 % 0 in
22:47 32.4 °F 30.4 °F 30.1 in Calm   2 mph 92 % 0 in
22:52 32.4 °F 30.4 °F 30.1 in Calm   1 mph 92 % 0 in
22:57 32.2 °F 30.2 °F 30.1 in Calm   1 mph 92 % 0 in
23:02 32 °F 30 °F 30.1 in Calm     92 % 0 in
23:07 32.2 °F 30.4 °F 30.1 in Calm     93 % 0 in
23:12 32.5 °F 30.7 °F 30.1 in Calm   1 mph 93 % 0 in
23:17 32.4 °F 30.6 °F 30.1 in Calm   1 mph 93 % 0 in
23:22 32.4 °F 30.4 °F 30.1 in Calm   1 mph 92 % 0 in
23:27 32.4 °F 30.6 °F 30.1 in Calm   1 mph 93 % 0 in
23:32 32.4 °F 30.6 °F 30.1 in Calm   1 mph 93 % 0 in
23:37 32.4 °F 30.6 °F 30.1 in North 1 mph 1 mph 93 % 0 in
23:42 32.2 °F 30.2 °F 30.1 in Calm   1 mph 92 % 0 in
23:47 31.8 °F 29.8 °F 30.1 in Calm   1 mph 92 % 0 in
23:52 31.6 °F 29.8 °F 30.1 in Calm   1 mph 93 % 0 in
23:57 31.3 °F 29.3 °F 30.1 in Calm     92 % 0 in
Meteo18
Compliments of Weather Underground - 4 mb

Script developed by  Jim McMurry - jmcmurry@mwt.net Adapted for the template by  Wim van der Kuil - Leuven-Template.eu

You find our weather info also at:

European Weather Network

Weather Underground

Equipment we use:

Weather-station
Davis Vue

Weather-program
Meteohub

Weather-server
Raspberry PI 2 B+

Provider
1 and 1

Davis Vue

Meteohub

Raspberry PI 2 B+

1 and 1